sensor_id;sensor_type;location;lat;lon;timestamp;P1;durP1;ratioP1;P2;durP2;ratioP2
26052;SDS011;13826;51.186;4.450;2022-10-16T00:01:58;25.92;;;9.48;;
26052;SDS011;13826;51.186;4.450;2022-10-16T00:04:23;20.38;;;7.22;;
26052;SDS011;13826;51.186;4.450;2022-10-16T00:06:49;24.05;;;7.50;;
26052;SDS011;13826;51.186;4.450;2022-10-16T00:09:15;16.25;;;6.07;;
26052;SDS011;13826;51.186;4.450;2022-10-16T00:11:40;21.30;;;8.80;;
26052;SDS011;13826;51.186;4.450;2022-10-16T00:14:07;7.90;;;3.22;;
26052;SDS011;13826;51.186;4.450;2022-10-16T00:16:35;22.80;;;6.85;;
26052;SDS011;13826;51.186;4.450;2022-10-16T00:19:01;12.18;;;4.53;;
26052;SDS011;13826;51.186;4.450;2022-10-16T00:21:28;13.82;;;4.10;;
26052;SDS011;13826;51.186;4.450;2022-10-16T00:24:03;6.47;;;2.78;;
26052;SDS011;13826;51.186;4.450;2022-10-16T00:26:30;11.70;;;3.05;;
26052;SDS011;13826;51.186;4.450;2022-10-16T00:28:57;6.63;;;2.03;;
26052;SDS011;13826;51.186;4.450;2022-10-16T00:31:23;12.88;;;3.90;;
26052;SDS011;13826;51.186;4.450;2022-10-16T00:33:49;8.55;;;3.08;;
26052;SDS011;13826;51.186;4.450;2022-10-16T00:36:17;11.32;;;3.80;;
26052;SDS011;13826;51.186;4.450;2022-10-16T00:38:46;16.70;;;5.82;;
26052;SDS011;13826;51.186;4.450;2022-10-16T00:41:15;9.88;;;3.42;;
26052;SDS011;13826;51.186;4.450;2022-10-16T00:43:43;5.60;;;2.42;;
26052;SDS011;13826;51.186;4.450;2022-10-16T00:46:13;8.93;;;3.22;;
26052;SDS011;13826;51.186;4.450;2022-10-16T00:49:30;11.38;;;3.38;;
26052;SDS011;13826;51.186;4.450;2022-10-16T00:51:42;14.73;;;4.30;;
26052;SDS011;13826;51.186;4.450;2022-10-16T00:54:14;3.73;;;2.17;;
26052;SDS011;13826;51.186;4.450;2022-10-16T00:56:43;11.45;;;3.45;;
26052;SDS011;13826;51.186;4.450;2022-10-16T01:01:50;5.15;;;2.28;;
26052;SDS011;13826;51.186;4.450;2022-10-16T01:04:16;6.45;;;1.88;;
26052;SDS011;13826;51.186;4.450;2022-10-16T01:06:46;5.70;;;2.35;;
26052;SDS011;13826;51.186;4.450;2022-10-16T01:11:49;5.15;;;1.75;;
26052;SDS011;13826;51.186;4.450;2022-10-16T01:14:40;4.55;;;1.50;;
26052;SDS011;13826;51.186;4.450;2022-10-16T01:17:22;5.78;;;1.75;;
26052;SDS011;13826;51.186;4.450;2022-10-16T01:23:10;4.28;;;2.17;;
26052;SDS011;13826;51.186;4.450;2022-10-16T01:28:40;3.25;;;1.75;;
26052;SDS011;13826;51.186;4.450;2022-10-16T01:31:29;3.63;;;1.60;;
26052;SDS011;13826;51.186;4.450;2022-10-16T01:34:04;4.75;;;2.13;;
26052;SDS011;13826;51.186;4.450;2022-10-16T01:36:35;4.47;;;2.45;;
26052;SDS011;13826;51.186;4.450;2022-10-16T01:39:04;6.53;;;2.75;;
26052;SDS011;13826;51.186;4.450;2022-10-16T01:41:43;8.57;;;2.53;;
26052;SDS011;13826;51.186;4.450;2022-10-16T01:44:14;10.63;;;3.00;;
26052;SDS011;13826;51.186;4.450;2022-10-16T01:46:47;7.82;;;2.72;;
26052;SDS011;13826;51.186;4.450;2022-10-16T01:49:15;11.52;;;2.92;;
26052;SDS011;13826;51.186;4.450;2022-10-16T01:51:44;7.07;;;2.58;;
26052;SDS011;13826;51.186;4.450;2022-10-16T01:54:13;4.93;;;2.20;;
26052;SDS011;13826;51.186;4.450;2022-10-16T01:56:42;4.57;;;2.22;;
26052;SDS011;13826;51.186;4.450;2022-10-16T01:59:12;8.35;;;2.75;;
26052;SDS011;13826;51.186;4.450;2022-10-16T02:01:43;10.15;;;3.47;;
26052;SDS011;13826;51.186;4.450;2022-10-16T02:04:26;3.80;;;2.30;;
26052;SDS011;13826;51.186;4.450;2022-10-16T02:06:56;8.20;;;3.10;;
26052;SDS011;13826;51.186;4.450;2022-10-16T02:09:22;8.13;;;3.05;;
26052;SDS011;13826;51.186;4.450;2022-10-16T02:11:48;9.25;;;2.95;;
26052;SDS011;13826;51.186;4.450;2022-10-16T02:14:18;6.22;;;2.33;;
26052;SDS011;13826;51.186;4.450;2022-10-16T02:16:45;8.98;;;2.42;;
26052;SDS011;13826;51.186;4.450;2022-10-16T02:19:14;6.60;;;2.38;;
26052;SDS011;13826;51.186;4.450;2022-10-16T02:26:57;3.88;;;1.73;;
26052;SDS011;13826;51.186;4.450;2022-10-16T02:29:33;5.47;;;1.77;;
26052;SDS011;13826;51.186;4.450;2022-10-16T02:32:04;3.80;;;1.58;;
26052;SDS011;13826;51.186;4.450;2022-10-16T02:34:32;3.67;;;1.70;;
26052;SDS011;13826;51.186;4.450;2022-10-16T02:36:59;3.40;;;1.60;;
26052;SDS011;13826;51.186;4.450;2022-10-16T02:39:29;4.78;;;1.70;;
26052;SDS011;13826;51.186;4.450;2022-10-16T02:41:56;4.32;;;1.70;;
26052;SDS011;13826;51.186;4.450;2022-10-16T02:44:21;2.63;;;1.80;;
26052;SDS011;13826;51.186;4.450;2022-10-16T02:46:47;2.65;;;1.60;;
26052;SDS011;13826;51.186;4.450;2022-10-16T02:49:12;2.95;;;1.60;;
26052;SDS011;13826;51.186;4.450;2022-10-16T02:51:38;6.65;;;1.95;;
26052;SDS011;13826;51.186;4.450;2022-10-16T02:54:07;4.90;;;2.13;;
26052;SDS011;13826;51.186;4.450;2022-10-16T02:56:32;3.25;;;1.60;;
26052;SDS011;13826;51.186;4.450;2022-10-16T02:58:58;5.05;;;1.80;;
26052;SDS011;13826;51.186;4.450;2022-10-16T03:01:24;6.10;;;1.90;;
26052;SDS011;13826;51.186;4.450;2022-10-16T03:03:50;2.67;;;1.83;;
26052;SDS011;13826;51.186;4.450;2022-10-16T03:06:15;3.90;;;2.00;;
26052;SDS011;13826;51.186;4.450;2022-10-16T03:08:41;4.57;;;1.80;;
26052;SDS011;13826;51.186;4.450;2022-10-16T03:11:07;5.80;;;2.05;;
26052;SDS011;13826;51.186;4.450;2022-10-16T03:13:32;4.80;;;2.08;;
26052;SDS011;13826;51.186;4.450;2022-10-16T03:15:58;9.52;;;2.15;;
26052;SDS011;13826;51.186;4.450;2022-10-16T03:18:24;4.07;;;1.80;;
26052;SDS011;13826;51.186;4.450;2022-10-16T03:20:49;5.45;;;1.77;;
26052;SDS011;13826;51.186;4.450;2022-10-16T03:23:15;5.65;;;1.95;;
26052;SDS011;13826;51.186;4.450;2022-10-16T03:25:41;4.93;;;1.80;;
26052;SDS011;13826;51.186;4.450;2022-10-16T03:28:06;4.97;;;1.90;;
26052;SDS011;13826;51.186;4.450;2022-10-16T03:30:32;5.32;;;1.90;;
26052;SDS011;13826;51.186;4.450;2022-10-16T03:32:58;7.80;;;2.22;;
26052;SDS011;13826;51.186;4.450;2022-10-16T03:35:24;5.10;;;2.25;;
26052;SDS011;13826;51.186;4.450;2022-10-16T03:37:50;8.13;;;2.05;;
26052;SDS011;13826;51.186;4.450;2022-10-16T03:40:16;5.72;;;2.20;;
26052;SDS011;13826;51.186;4.450;2022-10-16T03:42:42;3.47;;;1.73;;
26052;SDS011;13826;51.186;4.450;2022-10-16T03:45:09;9.95;;;2.47;;
26052;SDS011;13826;51.186;4.450;2022-10-16T03:47:35;8.18;;;2.10;;
26052;SDS011;13826;51.186;4.450;2022-10-16T03:50:01;4.72;;;1.88;;
26052;SDS011;13826;51.186;4.450;2022-10-16T03:52:27;5.55;;;2.05;;
26052;SDS011;13826;51.186;4.450;2022-10-16T03:54:53;3.90;;;1.67;;
26052;SDS011;13826;51.186;4.450;2022-10-16T03:57:19;5.47;;;2.13;;
26052;SDS011;13826;51.186;4.450;2022-10-16T03:59:45;4.35;;;1.83;;
26052;SDS011;13826;51.186;4.450;2022-10-16T04:02:11;4.57;;;1.80;;
26052;SDS011;13826;51.186;4.450;2022-10-16T04:04:37;4.88;;;2.00;;
26052;SDS011;13826;51.186;4.450;2022-10-16T04:07:03;6.30;;;2.20;;
26052;SDS011;13826;51.186;4.450;2022-10-16T04:09:28;4.25;;;1.85;;
26052;SDS011;13826;51.186;4.450;2022-10-16T04:11:54;5.03;;;2.30;;
26052;SDS011;13826;51.186;4.450;2022-10-16T04:14:20;4.55;;;2.13;;
26052;SDS011;13826;51.186;4.450;2022-10-16T04:16:45;8.02;;;2.15;;
26052;SDS011;13826;51.186;4.450;2022-10-16T04:19:11;3.85;;;2.10;;
26052;SDS011;13826;51.186;4.450;2022-10-16T04:21:37;4.88;;;1.90;;
26052;SDS011;13826;51.186;4.450;2022-10-16T04:24:02;4.63;;;2.00;;
26052;SDS011;13826;51.186;4.450;2022-10-16T04:26:28;6.05;;;2.20;;
26052;SDS011;13826;51.186;4.450;2022-10-16T04:28:54;9.60;;;2.17;;
26052;SDS011;13826;51.186;4.450;2022-10-16T04:31:20;5.47;;;2.10;;
26052;SDS011;13826;51.186;4.450;2022-10-16T04:33:46;5.47;;;2.00;;
26052;SDS011;13826;51.186;4.450;2022-10-16T04:36:12;4.72;;;2.00;;
26052;SDS011;13826;51.186;4.450;2022-10-16T04:38:38;5.18;;;1.90;;
26052;SDS011;13826;51.186;4.450;2022-10-16T04:41:05;4.63;;;2.58;;
26052;SDS011;13826;51.186;4.450;2022-10-16T04:43:31;5.10;;;2.00;;
26052;SDS011;13826;51.186;4.450;2022-10-16T04:45:57;3.45;;;2.20;;
26052;SDS011;13826;51.186;4.450;2022-10-16T04:48:23;3.83;;;2.17;;
26052;SDS011;13826;51.186;4.450;2022-10-16T04:50:48;8.48;;;2.58;;
26052;SDS011;13826;51.186;4.450;2022-10-16T04:53:14;5.82;;;2.70;;
26052;SDS011;13826;51.186;4.450;2022-10-16T04:55:40;5.93;;;2.42;;
26052;SDS011;13826;51.186;4.450;2022-10-16T04:58:06;4.18;;;2.40;;
26052;SDS011;13826;51.186;4.450;2022-10-16T05:00:32;12.02;;;2.63;;
26052;SDS011;13826;51.186;4.450;2022-10-16T05:02:58;7.57;;;2.72;;
26052;SDS011;13826;51.186;4.450;2022-10-16T05:05:25;5.55;;;2.08;;
26052;SDS011;13826;51.186;4.450;2022-10-16T05:07:51;5.00;;;2.20;;
26052;SDS011;13826;51.186;4.450;2022-10-16T05:10:17;5.07;;;2.20;;
26052;SDS011;13826;51.186;4.450;2022-10-16T05:12:43;6.68;;;2.60;;
26052;SDS011;13826;51.186;4.450;2022-10-16T05:15:09;3.70;;;2.20;;
26052;SDS011;13826;51.186;4.450;2022-10-16T05:17:35;4.43;;;2.35;;
26052;SDS011;13826;51.186;4.450;2022-10-16T05:20:01;8.00;;;2.60;;
26052;SDS011;13826;51.186;4.450;2022-10-16T05:22:28;4.93;;;2.53;;
26052;SDS011;13826;51.186;4.450;2022-10-16T05:24:54;7.55;;;2.60;;
26052;SDS011;13826;51.186;4.450;2022-10-16T05:27:19;5.32;;;2.88;;
26052;SDS011;13826;51.186;4.450;2022-10-16T05:29:46;5.10;;;3.00;;
26052;SDS011;13826;51.186;4.450;2022-10-16T05:32:12;4.45;;;2.72;;
26052;SDS011;13826;51.186;4.450;2022-10-16T05:34:41;6.22;;;2.38;;
26052;SDS011;13826;51.186;4.450;2022-10-16T05:37:08;3.35;;;2.30;;
26052;SDS011;13826;51.186;4.450;2022-10-16T05:39:33;8.10;;;2.60;;
26052;SDS011;13826;51.186;4.450;2022-10-16T05:41:59;6.15;;;2.58;;
26052;SDS011;13826;51.186;4.450;2022-10-16T05:44:25;7.25;;;2.63;;
26052;SDS011;13826;51.186;4.450;2022-10-16T05:46:50;7.30;;;2.90;;
26052;SDS011;13826;51.186;4.450;2022-10-16T05:49:16;9.23;;;3.22;;
26052;SDS011;13826;51.186;4.450;2022-10-16T05:51:42;4.93;;;2.20;;
26052;SDS011;13826;51.186;4.450;2022-10-16T05:54:07;3.83;;;2.25;;
26052;SDS011;13826;51.186;4.450;2022-10-16T05:56:33;9.13;;;2.55;;
26052;SDS011;13826;51.186;4.450;2022-10-16T05:58:59;4.97;;;2.72;;
26052;SDS011;13826;51.186;4.450;2022-10-16T06:01:25;5.07;;;2.47;;
26052;SDS011;13826;51.186;4.450;2022-10-16T06:03:51;6.03;;;2.45;;
26052;SDS011;13826;51.186;4.450;2022-10-16T06:06:18;5.40;;;2.58;;
26052;SDS011;13826;51.186;4.450;2022-10-16T06:08:46;7.97;;;2.90;;
26052;SDS011;13826;51.186;4.450;2022-10-16T06:11:16;6.60;;;2.65;;
26052;SDS011;13826;51.186;4.450;2022-10-16T06:13:50;4.47;;;2.03;;
26052;SDS011;13826;51.186;4.450;2022-10-16T06:16:21;7.88;;;2.70;;
26052;SDS011;13826;51.186;4.450;2022-10-16T06:18:47;7.63;;;3.15;;
26052;SDS011;13826;51.186;4.450;2022-10-16T06:21:23;4.88;;;2.35;;
26052;SDS011;13826;51.186;4.450;2022-10-16T06:23:50;6.57;;;3.17;;
26052;SDS011;13826;51.186;4.450;2022-10-16T06:26:17;7.30;;;2.10;;
26052;SDS011;13826;51.186;4.450;2022-10-16T06:28:45;5.07;;;2.30;;
26052;SDS011;13826;51.186;4.450;2022-10-16T06:31:14;9.10;;;2.70;;
26052;SDS011;13826;51.186;4.450;2022-10-16T06:33:41;7.40;;;2.47;;
26052;SDS011;13826;51.186;4.450;2022-10-16T06:36:11;7.68;;;2.67;;
26052;SDS011;13826;51.186;4.450;2022-10-16T06:38:38;5.78;;;3.00;;
26052;SDS011;13826;51.186;4.450;2022-10-16T06:41:05;5.15;;;2.20;;
26052;SDS011;13826;51.186;4.450;2022-10-16T06:43:32;6.65;;;2.72;;
26052;SDS011;13826;51.186;4.450;2022-10-16T06:46:00;7.90;;;2.95;;
26052;SDS011;13826;51.186;4.450;2022-10-16T06:48:27;5.65;;;2.72;;
26052;SDS011;13826;51.186;4.450;2022-10-16T06:53:31;7.70;;;2.35;;
26052;SDS011;13826;51.186;4.450;2022-10-16T06:56:06;7.60;;;2.80;;
26052;SDS011;13826;51.186;4.450;2022-10-16T06:58:36;6.32;;;2.92;;
26052;SDS011;13826;51.186;4.450;2022-10-16T07:01:03;10.75;;;3.70;;
26052;SDS011;13826;51.186;4.450;2022-10-16T07:03:29;6.15;;;2.95;;
26052;SDS011;13826;51.186;4.450;2022-10-16T07:05:55;5.32;;;2.63;;
26052;SDS011;13826;51.186;4.450;2022-10-16T07:08:21;8.85;;;2.50;;
26052;SDS011;13826;51.186;4.450;2022-10-16T07:10:47;5.40;;;2.65;;
26052;SDS011;13826;51.186;4.450;2022-10-16T07:13:13;7.28;;;2.65;;
26052;SDS011;13826;51.186;4.450;2022-10-16T07:15:39;3.40;;;2.40;;
26052;SDS011;13826;51.186;4.450;2022-10-16T07:18:05;4.60;;;2.10;;
26052;SDS011;13826;51.186;4.450;2022-10-16T07:20:32;6.70;;;2.80;;
26052;SDS011;13826;51.186;4.450;2022-10-16T07:22:58;8.35;;;3.40;;
26052;SDS011;13826;51.186;4.450;2022-10-16T07:25:23;3.40;;;1.98;;
26052;SDS011;13826;51.186;4.450;2022-10-16T07:27:49;5.97;;;2.25;;
26052;SDS011;13826;51.186;4.450;2022-10-16T07:30:15;5.13;;;2.13;;
26052;SDS011;13826;51.186;4.450;2022-10-16T07:32:40;5.18;;;1.98;;
26052;SDS011;13826;51.186;4.450;2022-10-16T07:35:06;3.30;;;1.52;;
26052;SDS011;13826;51.186;4.450;2022-10-16T07:37:32;5.70;;;1.70;;
26052;SDS011;13826;51.186;4.450;2022-10-16T07:39:58;6.07;;;1.70;;
26052;SDS011;13826;51.186;4.450;2022-10-16T07:42:24;7.68;;;2.33;;
26052;SDS011;13826;51.186;4.450;2022-10-16T07:44:49;7.43;;;1.77;;
26052;SDS011;13826;51.186;4.450;2022-10-16T07:47:15;5.80;;;1.55;;
26052;SDS011;13826;51.186;4.450;2022-10-16T07:49:41;2.00;;;1.10;;
26052;SDS011;13826;51.186;4.450;2022-10-16T07:52:06;8.40;;;1.73;;
26052;SDS011;13826;51.186;4.450;2022-10-16T07:54:32;4.53;;;1.45;;
26052;SDS011;13826;51.186;4.450;2022-10-16T07:56:58;5.53;;;1.95;;
26052;SDS011;13826;51.186;4.450;2022-10-16T07:59:23;5.07;;;1.50;;
26052;SDS011;13826;51.186;4.450;2022-10-16T08:01:49;3.70;;;1.50;;
26052;SDS011;13826;51.186;4.450;2022-10-16T08:04:15;4.72;;;1.80;;
26052;SDS011;13826;51.186;4.450;2022-10-16T08:06:41;5.18;;;1.67;;
26052;SDS011;13826;51.186;4.450;2022-10-16T08:09:07;3.90;;;1.83;;
26052;SDS011;13826;51.186;4.450;2022-10-16T08:11:33;7.00;;;1.92;;
26052;SDS011;13826;51.186;4.450;2022-10-16T08:13:59;5.72;;;1.77;;
26052;SDS011;13826;51.186;4.450;2022-10-16T08:16:25;4.05;;;1.40;;
26052;SDS011;13826;51.186;4.450;2022-10-16T08:18:51;4.68;;;1.58;;
26052;SDS011;13826;51.186;4.450;2022-10-16T08:21:17;6.85;;;1.63;;
26052;SDS011;13826;51.186;4.450;2022-10-16T08:23:45;4.95;;;1.80;;
26052;SDS011;13826;51.186;4.450;2022-10-16T08:26:11;8.10;;;1.73;;
26052;SDS011;13826;51.186;4.450;2022-10-16T08:28:37;5.25;;;1.67;;
26052;SDS011;13826;51.186;4.450;2022-10-16T08:31:15;3.95;;;1.30;;
26052;SDS011;13826;51.186;4.450;2022-10-16T08:33:41;6.82;;;1.60;;
26052;SDS011;13826;51.186;4.450;2022-10-16T08:36:09;7.22;;;1.45;;
26052;SDS011;13826;51.186;4.450;2022-10-16T08:38:36;4.82;;;1.50;;
26052;SDS011;13826;51.186;4.450;2022-10-16T08:46:26;6.32;;;1.58;;
26052;SDS011;13826;51.186;4.450;2022-10-16T08:49:15;5.10;;;1.50;;
26052;SDS011;13826;51.186;4.450;2022-10-16T08:51:41;3.97;;;1.60;;
26052;SDS011;13826;51.186;4.450;2022-10-16T08:54:26;4.15;;;1.33;;
26052;SDS011;13826;51.186;4.450;2022-10-16T08:56:56;5.90;;;1.55;;
26052;SDS011;13826;51.186;4.450;2022-10-16T08:59:26;4.50;;;1.27;;
26052;SDS011;13826;51.186;4.450;2022-10-16T09:01:52;4.05;;;1.10;;
26052;SDS011;13826;51.186;4.450;2022-10-16T09:06:58;6.50;;;1.65;;
26052;SDS011;13826;51.186;4.450;2022-10-16T09:18:51;5.45;;;1.15;;
26052;SDS011;13826;51.186;4.450;2022-10-16T09:23:51;6.30;;;1.65;;
26052;SDS011;13826;51.186;4.450;2022-10-16T09:26:18;6.93;;;1.98;;
26052;SDS011;13826;51.186;4.450;2022-10-16T09:28:46;5.40;;;1.52;;
26052;SDS011;13826;51.186;4.450;2022-10-16T09:31:16;7.28;;;1.70;;
26052;SDS011;13826;51.186;4.450;2022-10-16T09:33:43;6.80;;;1.92;;
26052;SDS011;13826;51.186;4.450;2022-10-16T09:36:13;3.78;;;1.55;;
26052;SDS011;13826;51.186;4.450;2022-10-16T09:38:40;4.40;;;1.40;;
26052;SDS011;13826;51.186;4.450;2022-10-16T09:41:39;5.10;;;1.70;;
26052;SDS011;13826;51.186;4.450;2022-10-16T09:43:59;6.10;;;1.75;;
26052;SDS011;13826;51.186;4.450;2022-10-16T09:46:28;4.55;;;1.55;;
26052;SDS011;13826;51.186;4.450;2022-10-16T09:49:18;5.32;;;1.40;;
26052;SDS011;13826;51.186;4.450;2022-10-16T09:51:49;5.75;;;2.03;;
26052;SDS011;13826;51.186;4.450;2022-10-16T09:54:20;5.32;;;1.55;;
26052;SDS011;13826;51.186;4.450;2022-10-16T09:56:46;4.65;;;1.55;;
26052;SDS011;13826;51.186;4.450;2022-10-16T09:59:18;4.68;;;1.40;;
26052;SDS011;13826;51.186;4.450;2022-10-16T10:01:48;6.13;;;1.90;;
26052;SDS011;13826;51.186;4.450;2022-10-16T10:04:16;8.55;;;2.25;;
26052;SDS011;13826;51.186;4.450;2022-10-16T10:06:52;4.30;;;1.27;;
26052;SDS011;13826;51.186;4.450;2022-10-16T10:09:25;5.03;;;1.58;;
26052;SDS011;13826;51.186;4.450;2022-10-16T10:12:04;6.97;;;1.95;;
26052;SDS011;13826;51.186;4.450;2022-10-16T10:14:44;11.32;;;1.90;;
26052;SDS011;13826;51.186;4.450;2022-10-16T10:17:26;8.90;;;1.60;;
26052;SDS011;13826;51.186;4.450;2022-10-16T10:19:53;5.63;;;1.70;;
26052;SDS011;13826;51.186;4.450;2022-10-16T10:22:31;12.13;;;1.92;;
26052;SDS011;13826;51.186;4.450;2022-10-16T10:35:40;8.35;;;1.63;;
26052;SDS011;13826;51.186;4.450;2022-10-16T10:43:40;11.63;;;1.80;;
26052;SDS011;13826;51.186;4.450;2022-10-16T10:46:34;8.98;;;1.63;;
26052;SDS011;13826;51.186;4.450;2022-10-16T10:54:39;7.20;;;1.42;;
26052;SDS011;13826;51.186;4.450;2022-10-16T11:03:27;6.05;;;1.95;;
26052;SDS011;13826;51.186;4.450;2022-10-16T11:05:51;7.63;;;1.90;;
26052;SDS011;13826;51.186;4.450;2022-10-16T11:08:35;7.50;;;2.30;;
26052;SDS011;13826;51.186;4.450;2022-10-16T11:11:24;5.75;;;1.65;;
26052;SDS011;13826;51.186;4.450;2022-10-16T11:13:56;11.82;;;1.65;;
26052;SDS011;13826;51.186;4.450;2022-10-16T11:16:27;7.70;;;1.83;;
26052;SDS011;13826;51.186;4.450;2022-10-16T11:18:56;9.20;;;1.73;;
26052;SDS011;13826;51.186;4.450;2022-10-16T11:21:40;6.65;;;1.90;;
26052;SDS011;13826;51.186;4.450;2022-10-16T11:24:23;4.75;;;1.60;;
26052;SDS011;13826;51.186;4.450;2022-10-16T11:26:59;8.93;;;1.95;;
26052;SDS011;13826;51.186;4.450;2022-10-16T11:29:32;8.77;;;2.40;;
26052;SDS011;13826;51.186;4.450;2022-10-16T11:32:18;6.90;;;1.80;;
26052;SDS011;13826;51.186;4.450;2022-10-16T11:34:52;11.40;;;1.95;;
26052;SDS011;13826;51.186;4.450;2022-10-16T11:40:21;9.40;;;1.85;;
26052;SDS011;13826;51.186;4.450;2022-10-16T11:45:54;7.30;;;1.90;;
26052;SDS011;13826;51.186;4.450;2022-10-16T11:48:41;11.63;;;2.10;;
26052;SDS011;13826;51.186;4.450;2022-10-16T11:54:04;5.20;;;1.35;;
26052;SDS011;13826;51.186;4.450;2022-10-16T11:56:52;7.03;;;1.67;;
26052;SDS011;13826;51.186;4.450;2022-10-16T12:01:59;6.65;;;1.70;;
26052;SDS011;13826;51.186;4.450;2022-10-16T12:04:49;6.53;;;1.65;;
26052;SDS011;13826;51.186;4.450;2022-10-16T12:07:25;7.60;;;1.67;;
26052;SDS011;13826;51.186;4.450;2022-10-16T12:09:57;4.63;;;1.55;;
26052;SDS011;13826;51.186;4.450;2022-10-16T12:12:47;7.18;;;1.40;;
26052;SDS011;13826;51.186;4.450;2022-10-16T12:15:22;4.50;;;1.30;;
26052;SDS011;13826;51.186;4.450;2022-10-16T12:17:55;6.22;;;1.98;;
26052;SDS011;13826;51.186;4.450;2022-10-16T12:20:31;11.10;;;2.10;;
26052;SDS011;13826;51.186;4.450;2022-10-16T12:23:16;7.75;;;1.40;;
26052;SDS011;13826;51.186;4.450;2022-10-16T12:25:53;7.30;;;1.67;;
26052;SDS011;13826;51.186;4.450;2022-10-16T12:28:20;7.70;;;1.48;;
26052;SDS011;13826;51.186;4.450;2022-10-16T12:30:58;7.85;;;1.40;;
26052;SDS011;13826;51.186;4.450;2022-10-16T12:33:32;5.05;;;1.30;;
26052;SDS011;13826;51.186;4.450;2022-10-16T12:36:13;7.20;;;1.63;;
26052;SDS011;13826;51.186;4.450;2022-10-16T12:38:51;7.38;;;1.40;;
26052;SDS011;13826;51.186;4.450;2022-10-16T12:41:31;6.20;;;1.55;;
26052;SDS011;13826;51.186;4.450;2022-10-16T12:43:58;7.22;;;1.48;;
26052;SDS011;13826;51.186;4.450;2022-10-16T12:51:41;8.02;;;2.13;;
26052;SDS011;13826;51.186;4.450;2022-10-16T12:54:17;7.88;;;1.50;;
26052;SDS011;13826;51.186;4.450;2022-10-16T13:07:44;5.38;;;1.48;;
26052;SDS011;13826;51.186;4.450;2022-10-16T13:10:31;4.47;;;1.20;;
26052;SDS011;13826;51.186;4.450;2022-10-16T13:13:21;8.13;;;2.25;;
26052;SDS011;13826;51.186;4.450;2022-10-16T13:16:08;4.20;;;1.20;;
26052;SDS011;13826;51.186;4.450;2022-10-16T13:29:36;6.35;;;1.35;;
26052;SDS011;13826;51.186;4.450;2022-10-16T13:32:09;6.75;;;1.40;;
26052;SDS011;13826;51.186;4.450;2022-10-16T13:34:48;5.40;;;1.50;;
26052;SDS011;13826;51.186;4.450;2022-10-16T13:37:21;5.30;;;1.30;;
26052;SDS011;13826;51.186;4.450;2022-10-16T13:39:48;8.85;;;1.35;;
26052;SDS011;13826;51.186;4.450;2022-10-16T13:42:25;2.85;;;1.38;;
26052;SDS011;13826;51.186;4.450;2022-10-16T13:44:53;3.97;;;1.42;;
26052;SDS011;13826;51.186;4.450;2022-10-16T13:47:21;4.00;;;0.80;;
26052;SDS011;13826;51.186;4.450;2022-10-16T13:50:09;4.60;;;0.98;;
26052;SDS011;13826;51.186;4.450;2022-10-16T13:52:37;2.45;;;0.95;;
26052;SDS011;13826;51.186;4.450;2022-10-16T13:55:24;6.13;;;1.05;;
26052;SDS011;13826;51.186;4.450;2022-10-16T13:57:49;8.57;;;1.20;;
26052;SDS011;13826;51.186;4.450;2022-10-16T14:00:19;5.35;;;1.45;;
26052;SDS011;13826;51.186;4.450;2022-10-16T14:02:45;4.80;;;1.27;;
26052;SDS011;13826;51.186;4.450;2022-10-16T14:05:22;5.18;;;1.10;;
26052;SDS011;13826;51.186;4.450;2022-10-16T14:07:49;5.18;;;1.25;;
26052;SDS011;13826;51.186;4.450;2022-10-16T14:10:20;5.32;;;1.20;;
26052;SDS011;13826;51.186;4.450;2022-10-16T14:13:02;6.05;;;1.20;;
26052;SDS011;13826;51.186;4.450;2022-10-16T14:15:30;5.95;;;1.20;;
26052;SDS011;13826;51.186;4.450;2022-10-16T14:17:58;6.65;;;1.30;;
26052;SDS011;13826;51.186;4.450;2022-10-16T14:20:25;4.07;;;1.33;;
26052;SDS011;13826;51.186;4.450;2022-10-16T14:23:00;5.38;;;1.40;;
26052;SDS011;13826;51.186;4.450;2022-10-16T14:25:44;14.10;;;1.48;;
26052;SDS011;13826;51.186;4.450;2022-10-16T14:30:52;3.47;;;1.50;;
26052;SDS011;13826;51.186;4.450;2022-10-16T14:38:41;2.95;;;1.08;;
26052;SDS011;13826;51.186;4.450;2022-10-16T14:41:08;5.90;;;1.67;;
26052;SDS011;13826;51.186;4.450;2022-10-16T14:43:35;5.22;;;1.10;;
26052;SDS011;13826;51.186;4.450;2022-10-16T14:46:11;3.08;;;1.13;;
26052;SDS011;13826;51.186;4.450;2022-10-16T14:48:42;8.20;;;1.10;;
26052;SDS011;13826;51.186;4.450;2022-10-16T14:51:13;4.00;;;1.15;;
26052;SDS011;13826;51.186;4.450;2022-10-16T14:53:39;2.65;;;1.13;;
26052;SDS011;13826;51.186;4.450;2022-10-16T14:56:06;4.43;;;1.48;;
26052;SDS011;13826;51.186;4.450;2022-10-16T14:58:34;5.88;;;1.15;;
26052;SDS011;13826;51.186;4.450;2022-10-16T15:01:00;5.72;;;1.02;;
26052;SDS011;13826;51.186;4.450;2022-10-16T15:03:26;6.75;;;1.00;;
26052;SDS011;13826;51.186;4.450;2022-10-16T15:05:51;4.78;;;1.23;;
26052;SDS011;13826;51.186;4.450;2022-10-16T15:08:17;3.97;;;0.90;;
26052;SDS011;13826;51.186;4.450;2022-10-16T15:10:43;6.70;;;1.20;;
26052;SDS011;13826;51.186;4.450;2022-10-16T15:13:12;2.08;;;0.85;;
26052;SDS011;13826;51.186;4.450;2022-10-16T15:15:41;5.60;;;1.55;;
26052;SDS011;13826;51.186;4.450;2022-10-16T15:18:11;3.45;;;1.15;;
26052;SDS011;13826;51.186;4.450;2022-10-16T15:20:39;6.68;;;1.42;;
26052;SDS011;13826;51.186;4.450;2022-10-16T15:23:15;2.05;;;1.10;;
26052;SDS011;13826;51.186;4.450;2022-10-16T15:28:12;2.13;;;1.10;;
26052;SDS011;13826;51.186;4.450;2022-10-16T15:30:39;4.00;;;1.02;;
26052;SDS011;13826;51.186;4.450;2022-10-16T15:33:10;3.25;;;1.60;;
26052;SDS011;13826;51.186;4.450;2022-10-16T15:35:40;3.92;;;1.50;;
26052;SDS011;13826;51.186;4.450;2022-10-16T15:38:07;5.75;;;1.58;;
26052;SDS011;13826;51.186;4.450;2022-10-16T15:40:37;6.75;;;2.05;;
26052;SDS011;13826;51.186;4.450;2022-10-16T15:43:03;3.03;;;1.60;;
26052;SDS011;13826;51.186;4.450;2022-10-16T15:45:29;7.25;;;2.22;;
26052;SDS011;13826;51.186;4.450;2022-10-16T15:47:54;5.97;;;1.58;;
26052;SDS011;13826;51.186;4.450;2022-10-16T15:50:20;6.43;;;1.60;;
26052;SDS011;13826;51.186;4.450;2022-10-16T15:52:46;5.10;;;1.52;;
26052;SDS011;13826;51.186;4.450;2022-10-16T15:55:12;4.30;;;1.50;;
26052;SDS011;13826;51.186;4.450;2022-10-16T15:57:38;5.35;;;1.50;;
26052;SDS011;13826;51.186;4.450;2022-10-16T16:00:08;5.82;;;1.52;;
26052;SDS011;13826;51.186;4.450;2022-10-16T16:02:42;4.20;;;1.27;;
26052;SDS011;13826;51.186;4.450;2022-10-16T16:05:09;4.28;;;1.20;;
26052;SDS011;13826;51.186;4.450;2022-10-16T16:07:36;6.45;;;1.40;;
26052;SDS011;13826;51.186;4.450;2022-10-16T16:10:03;5.50;;;1.27;;
26052;SDS011;13826;51.186;4.450;2022-10-16T16:12:30;5.03;;;1.30;;
26052;SDS011;13826;51.186;4.450;2022-10-16T16:14:56;4.47;;;1.83;;
26052;SDS011;13826;51.186;4.450;2022-10-16T16:17:22;6.93;;;1.77;;
26052;SDS011;13826;51.186;4.450;2022-10-16T16:19:49;1.98;;;1.27;;
26052;SDS011;13826;51.186;4.450;2022-10-16T16:22:15;7.35;;;2.15;;
26052;SDS011;13826;51.186;4.450;2022-10-16T16:24:41;5.15;;;1.67;;
26052;SDS011;13826;51.186;4.450;2022-10-16T16:27:07;6.82;;;2.35;;
26052;SDS011;13826;51.186;4.450;2022-10-16T16:29:33;7.53;;;3.03;;
26052;SDS011;13826;51.186;4.450;2022-10-16T16:31:59;6.95;;;2.53;;
26052;SDS011;13826;51.186;4.450;2022-10-16T16:34:26;8.73;;;2.63;;
26052;SDS011;13826;51.186;4.450;2022-10-16T16:36:53;6.20;;;2.30;;
26052;SDS011;13826;51.186;4.450;2022-10-16T16:39:19;8.85;;;2.63;;
26052;SDS011;13826;51.186;4.450;2022-10-16T16:41:45;6.25;;;2.00;;
26052;SDS011;13826;51.186;4.450;2022-10-16T16:44:11;4.68;;;2.40;;
26052;SDS011;13826;51.186;4.450;2022-10-16T16:46:38;9.80;;;2.65;;
26052;SDS011;13826;51.186;4.450;2022-10-16T16:49:04;6.63;;;2.40;;
26052;SDS011;13826;51.186;4.450;2022-10-16T16:51:31;4.75;;;2.00;;
26052;SDS011;13826;51.186;4.450;2022-10-16T16:53:57;7.13;;;2.33;;
26052;SDS011;13826;51.186;4.450;2022-10-16T16:56:24;9.80;;;1.98;;